sensor_id;sensor_type;location;lat;lon;timestamp;P1;durP1;ratioP1;P2;durP2;ratioP2
20437;SDS011;17436;50.338;8.810;2022-10-19T00:00:47;21.87;;;12.70;;
20437;SDS011;17436;50.338;8.810;2022-10-19T00:03:14;21.70;;;12.03;;
20437;SDS011;17436;50.338;8.810;2022-10-19T00:05:41;22.43;;;13.07;;
20437;SDS011;17436;50.338;8.810;2022-10-19T00:08:08;25.30;;;13.03;;
20437;SDS011;17436;50.338;8.810;2022-10-19T00:10:34;22.10;;;13.07;;
20437;SDS011;17436;50.338;8.810;2022-10-19T00:13:05;24.63;;;13.47;;
20437;SDS011;17436;50.338;8.810;2022-10-19T00:15:31;23.07;;;12.13;;
20437;SDS011;17436;50.338;8.810;2022-10-19T00:18:00;24.13;;;12.33;;
20437;SDS011;17436;50.338;8.810;2022-10-19T00:20:26;23.87;;;12.70;;
20437;SDS011;17436;50.338;8.810;2022-10-19T00:22:53;23.07;;;12.13;;
20437;SDS011;17436;50.338;8.810;2022-10-19T00:25:20;24.13;;;13.17;;
20437;SDS011;17436;50.338;8.810;2022-10-19T00:27:46;28.00;;;13.07;;
20437;SDS011;17436;50.338;8.810;2022-10-19T00:30:14;26.20;;;13.37;;
20437;SDS011;17436;50.338;8.810;2022-10-19T00:32:40;27.73;;;13.30;;
20437;SDS011;17436;50.338;8.810;2022-10-19T00:35:09;25.80;;;13.23;;
20437;SDS011;17436;50.338;8.810;2022-10-19T00:37:35;25.40;;;12.37;;
20437;SDS011;17436;50.338;8.810;2022-10-19T00:40:02;21.57;;;13.17;;
20437;SDS011;17436;50.338;8.810;2022-10-19T00:42:36;26.53;;;13.10;;
20437;SDS011;17436;50.338;8.810;2022-10-19T00:45:04;21.90;;;12.80;;
20437;SDS011;17436;50.338;8.810;2022-10-19T00:47:37;23.23;;;12.93;;
20437;SDS011;17436;50.338;8.810;2022-10-19T00:50:04;24.73;;;12.83;;
20437;SDS011;17436;50.338;8.810;2022-10-19T00:52:33;24.10;;;13.33;;
20437;SDS011;17436;50.338;8.810;2022-10-19T00:55:00;25.90;;;13.27;;
20437;SDS011;17436;50.338;8.810;2022-10-19T00:57:27;25.53;;;13.67;;
20437;SDS011;17436;50.338;8.810;2022-10-19T00:59:58;27.27;;;14.23;;
20437;SDS011;17436;50.338;8.810;2022-10-19T01:02:29;22.87;;;13.23;;
20437;SDS011;17436;50.338;8.810;2022-10-19T01:04:55;25.87;;;12.63;;
20437;SDS011;17436;50.338;8.810;2022-10-19T01:07:24;27.00;;;13.67;;
20437;SDS011;17436;50.338;8.810;2022-10-19T01:09:53;23.90;;;13.23;;
20437;SDS011;17436;50.338;8.810;2022-10-19T01:12:24;23.67;;;13.43;;
20437;SDS011;17436;50.338;8.810;2022-10-19T01:15:19;24.67;;;13.17;;
20437;SDS011;17436;50.338;8.810;2022-10-19T01:17:55;24.73;;;13.20;;
20437;SDS011;17436;50.338;8.810;2022-10-19T01:26:43;24.63;;;13.03;;
20437;SDS011;17436;50.338;8.810;2022-10-19T01:29:32;28.60;;;14.23;;
20437;SDS011;17436;50.338;8.810;2022-10-19T01:32:24;22.97;;;14.67;;
20437;SDS011;17436;50.338;8.810;2022-10-19T01:35:01;31.07;;;15.17;;
20437;SDS011;17436;50.338;8.810;2022-10-19T01:37:34;22.87;;;13.07;;
20437;SDS011;17436;50.338;8.810;2022-10-19T01:40:09;27.03;;;14.70;;
20437;SDS011;17436;50.338;8.810;2022-10-19T01:42:47;28.13;;;15.13;;
20437;SDS011;17436;50.338;8.810;2022-10-19T01:45:26;39.50;;;16.60;;
20437;SDS011;17436;50.338;8.810;2022-10-19T01:47:58;30.97;;;15.27;;
20437;SDS011;17436;50.338;8.810;2022-10-19T01:50:33;30.10;;;14.83;;
20437;SDS011;17436;50.338;8.810;2022-10-19T01:53:06;24.93;;;13.93;;
20437;SDS011;17436;50.338;8.810;2022-10-19T01:55:35;26.43;;;14.40;;
20437;SDS011;17436;50.338;8.810;2022-10-19T01:58:07;24.67;;;14.87;;
20437;SDS011;17436;50.338;8.810;2022-10-19T02:00:37;35.00;;;15.70;;
20437;SDS011;17436;50.338;8.810;2022-10-19T02:03:07;33.20;;;15.97;;
20437;SDS011;17436;50.338;8.810;2022-10-19T02:05:36;24.67;;;13.93;;
20437;SDS011;17436;50.338;8.810;2022-10-19T02:08:05;27.33;;;15.00;;
20437;SDS011;17436;50.338;8.810;2022-10-19T02:10:39;27.13;;;14.33;;
20437;SDS011;17436;50.338;8.810;2022-10-19T02:13:08;30.80;;;15.83;;
20437;SDS011;17436;50.338;8.810;2022-10-19T02:15:40;26.67;;;13.83;;
20437;SDS011;17436;50.338;8.810;2022-10-19T02:18:11;25.50;;;14.00;;
20437;SDS011;17436;50.338;8.810;2022-10-19T02:20:40;23.40;;;13.17;;
20437;SDS011;17436;50.338;8.810;2022-10-19T02:23:07;23.17;;;13.90;;
20437;SDS011;17436;50.338;8.810;2022-10-19T02:25:34;24.33;;;13.33;;
20437;SDS011;17436;50.338;8.810;2022-10-19T02:28:02;25.00;;;13.13;;
20437;SDS011;17436;50.338;8.810;2022-10-19T02:30:29;28.63;;;13.63;;
20437;SDS011;17436;50.338;8.810;2022-10-19T02:32:58;26.13;;;12.90;;
20437;SDS011;17436;50.338;8.810;2022-10-19T02:35:24;23.60;;;13.53;;
20437;SDS011;17436;50.338;8.810;2022-10-19T02:37:51;25.13;;;14.00;;
20437;SDS011;17436;50.338;8.810;2022-10-19T02:40:19;23.97;;;14.43;;
20437;SDS011;17436;50.338;8.810;2022-10-19T02:42:47;23.80;;;13.33;;
20437;SDS011;17436;50.338;8.810;2022-10-19T02:45:20;24.23;;;13.63;;
20437;SDS011;17436;50.338;8.810;2022-10-19T02:47:51;27.43;;;13.60;;
20437;SDS011;17436;50.338;8.810;2022-10-19T02:50:22;22.03;;;13.43;;
20437;SDS011;17436;50.338;8.810;2022-10-19T02:52:49;20.07;;;12.17;;
20437;SDS011;17436;50.338;8.810;2022-10-19T02:55:15;27.10;;;12.50;;
20437;SDS011;17436;50.338;8.810;2022-10-19T02:57:42;20.97;;;12.23;;
20437;SDS011;17436;50.338;8.810;2022-10-19T03:00:09;22.70;;;12.10;;
20437;SDS011;17436;50.338;8.810;2022-10-19T03:02:37;21.33;;;12.00;;
20437;SDS011;17436;50.338;8.810;2022-10-19T03:05:04;19.93;;;11.87;;
20437;SDS011;17436;50.338;8.810;2022-10-19T03:07:32;20.70;;;11.27;;
20437;SDS011;17436;50.338;8.810;2022-10-19T03:09:59;19.70;;;11.63;;
20437;SDS011;17436;50.338;8.810;2022-10-19T03:12:26;19.03;;;11.13;;
20437;SDS011;17436;50.338;8.810;2022-10-19T03:14:53;19.80;;;10.90;;
20437;SDS011;17436;50.338;8.810;2022-10-19T03:17:19;19.53;;;10.97;;
20437;SDS011;17436;50.338;8.810;2022-10-19T03:19:46;18.90;;;10.57;;
20437;SDS011;17436;50.338;8.810;2022-10-19T03:22:13;17.40;;;11.07;;
20437;SDS011;17436;50.338;8.810;2022-10-19T03:24:41;24.40;;;11.67;;
20437;SDS011;17436;50.338;8.810;2022-10-19T03:27:08;22.70;;;11.97;;
20437;SDS011;17436;50.338;8.810;2022-10-19T03:29:34;18.67;;;10.53;;
20437;SDS011;17436;50.338;8.810;2022-10-19T03:32:01;16.20;;;10.93;;
20437;SDS011;17436;50.338;8.810;2022-10-19T03:34:28;19.10;;;11.23;;
20437;SDS011;17436;50.338;8.810;2022-10-19T03:36:54;16.90;;;10.50;;
20437;SDS011;17436;50.338;8.810;2022-10-19T03:39:23;19.30;;;11.00;;
20437;SDS011;17436;50.338;8.810;2022-10-19T03:41:51;18.77;;;11.37;;
20437;SDS011;17436;50.338;8.810;2022-10-19T03:44:18;22.57;;;11.07;;
20437;SDS011;17436;50.338;8.810;2022-10-19T03:46:45;18.97;;;11.13;;
20437;SDS011;17436;50.338;8.810;2022-10-19T03:49:13;20.00;;;11.77;;
20437;SDS011;17436;50.338;8.810;2022-10-19T03:51:40;18.23;;;11.13;;
20437;SDS011;17436;50.338;8.810;2022-10-19T03:54:10;20.63;;;11.33;;
20437;SDS011;17436;50.338;8.810;2022-10-19T03:56:39;22.10;;;11.43;;
20437;SDS011;17436;50.338;8.810;2022-10-19T03:59:09;22.00;;;12.00;;
20437;SDS011;17436;50.338;8.810;2022-10-19T04:01:40;21.33;;;12.70;;
20437;SDS011;17436;50.338;8.810;2022-10-19T04:04:09;19.83;;;11.20;;
20437;SDS011;17436;50.338;8.810;2022-10-19T04:06:39;18.67;;;11.70;;
20437;SDS011;17436;50.338;8.810;2022-10-19T04:09:08;21.87;;;11.20;;
20437;SDS011;17436;50.338;8.810;2022-10-19T04:11:37;26.87;;;10.97;;
20437;SDS011;17436;50.338;8.810;2022-10-19T04:14:04;28.60;;;10.87;;
20437;SDS011;17436;50.338;8.810;2022-10-19T04:16:33;22.33;;;11.30;;
20437;SDS011;17436;50.338;8.810;2022-10-19T04:19:00;20.60;;;11.60;;
20437;SDS011;17436;50.338;8.810;2022-10-19T04:21:27;19.13;;;11.50;;
20437;SDS011;17436;50.338;8.810;2022-10-19T04:23:56;26.83;;;12.33;;
20437;SDS011;17436;50.338;8.810;2022-10-19T04:26:25;21.63;;;12.20;;
20437;SDS011;17436;50.338;8.810;2022-10-19T04:28:52;28.87;;;13.03;;
20437;SDS011;17436;50.338;8.810;2022-10-19T04:31:20;20.10;;;12.70;;
20437;SDS011;17436;50.338;8.810;2022-10-19T04:33:47;24.07;;;13.77;;
20437;SDS011;17436;50.338;8.810;2022-10-19T04:36:13;25.90;;;13.17;;
20437;SDS011;17436;50.338;8.810;2022-10-19T04:38:40;27.23;;;14.27;;
20437;SDS011;17436;50.338;8.810;2022-10-19T04:41:08;23.40;;;13.03;;
20437;SDS011;17436;50.338;8.810;2022-10-19T04:43:36;21.93;;;14.23;;
20437;SDS011;17436;50.338;8.810;2022-10-19T04:46:03;27.23;;;13.97;;
20437;SDS011;17436;50.338;8.810;2022-10-19T04:48:32;23.73;;;13.73;;
20437;SDS011;17436;50.338;8.810;2022-10-19T04:51:00;30.33;;;14.13;;
20437;SDS011;17436;50.338;8.810;2022-10-19T04:53:27;23.13;;;13.83;;
20437;SDS011;17436;50.338;8.810;2022-10-19T04:55:54;22.03;;;12.77;;
20437;SDS011;17436;50.338;8.810;2022-10-19T04:58:21;21.63;;;12.10;;
20437;SDS011;17436;50.338;8.810;2022-10-19T05:00:48;16.80;;;10.77;;
20437;SDS011;17436;50.338;8.810;2022-10-19T05:03:14;18.00;;;10.63;;
20437;SDS011;17436;50.338;8.810;2022-10-19T05:05:43;18.10;;;11.07;;
20437;SDS011;17436;50.338;8.810;2022-10-19T05:08:09;18.10;;;11.07;;
20437;SDS011;17436;50.338;8.810;2022-10-19T05:10:36;18.93;;;11.50;;
20437;SDS011;17436;50.338;8.810;2022-10-19T05:13:03;26.27;;;12.73;;
20437;SDS011;17436;50.338;8.810;2022-10-19T05:15:31;16.17;;;9.90;;
20437;SDS011;17436;50.338;8.810;2022-10-19T05:17:57;17.93;;;11.70;;
20437;SDS011;17436;50.338;8.810;2022-10-19T05:20:24;17.03;;;11.10;;
20437;SDS011;17436;50.338;8.810;2022-10-19T05:22:53;17.90;;;10.50;;
20437;SDS011;17436;50.338;8.810;2022-10-19T05:25:19;19.10;;;10.90;;
20437;SDS011;17436;50.338;8.810;2022-10-19T05:27:49;16.60;;;10.43;;
20437;SDS011;17436;50.338;8.810;2022-10-19T05:30:16;17.43;;;10.47;;
20437;SDS011;17436;50.338;8.810;2022-10-19T05:32:43;14.50;;;9.90;;
20437;SDS011;17436;50.338;8.810;2022-10-19T05:35:10;24.60;;;10.07;;
20437;SDS011;17436;50.338;8.810;2022-10-19T05:37:37;18.23;;;10.77;;
20437;SDS011;17436;50.338;8.810;2022-10-19T05:40:06;17.37;;;10.57;;
20437;SDS011;17436;50.338;8.810;2022-10-19T05:42:33;15.90;;;10.37;;
20437;SDS011;17436;50.338;8.810;2022-10-19T05:45:00;15.67;;;9.77;;
20437;SDS011;17436;50.338;8.810;2022-10-19T05:47:27;14.57;;;9.73;;
20437;SDS011;17436;50.338;8.810;2022-10-19T05:49:54;14.37;;;8.87;;
20437;SDS011;17436;50.338;8.810;2022-10-19T05:52:20;14.77;;;9.07;;
20437;SDS011;17436;50.338;8.810;2022-10-19T05:54:47;24.10;;;10.37;;
20437;SDS011;17436;50.338;8.810;2022-10-19T05:57:15;14.47;;;8.27;;
20437;SDS011;17436;50.338;8.810;2022-10-19T05:59:42;14.27;;;8.20;;
20437;SDS011;17436;50.338;8.810;2022-10-19T06:02:11;12.10;;;7.90;;
20437;SDS011;17436;50.338;8.810;2022-10-19T06:04:38;17.17;;;10.37;;
20437;SDS011;17436;50.338;8.810;2022-10-19T06:07:05;15.80;;;8.50;;
20437;SDS011;17436;50.338;8.810;2022-10-19T06:09:32;15.60;;;8.93;;
20437;SDS011;17436;50.338;8.810;2022-10-19T06:12:00;22.40;;;13.23;;
20437;SDS011;17436;50.338;8.810;2022-10-19T06:14:29;13.90;;;8.70;;
20437;SDS011;17436;50.338;8.810;2022-10-19T06:16:56;12.03;;;7.73;;
20437;SDS011;17436;50.338;8.810;2022-10-19T06:19:22;13.83;;;7.43;;
20437;SDS011;17436;50.338;8.810;2022-10-19T06:21:49;11.17;;;6.60;;
20437;SDS011;17436;50.338;8.810;2022-10-19T06:24:16;11.70;;;7.33;;
20437;SDS011;17436;50.338;8.810;2022-10-19T06:26:43;22.53;;;8.07;;
20437;SDS011;17436;50.338;8.810;2022-10-19T06:29:10;17.63;;;7.67;;
20437;SDS011;17436;50.338;8.810;2022-10-19T06:31:38;13.80;;;7.10;;
20437;SDS011;17436;50.338;8.810;2022-10-19T06:34:04;14.97;;;7.30;;
20437;SDS011;17436;50.338;8.810;2022-10-19T06:36:31;11.70;;;7.23;;
20437;SDS011;17436;50.338;8.810;2022-10-19T06:38:58;14.10;;;7.90;;
20437;SDS011;17436;50.338;8.810;2022-10-19T06:41:25;12.67;;;7.33;;
20437;SDS011;17436;50.338;8.810;2022-10-19T06:43:54;14.23;;;7.33;;
20437;SDS011;17436;50.338;8.810;2022-10-19T06:46:22;10.27;;;6.43;;
20437;SDS011;17436;50.338;8.810;2022-10-19T06:48:52;11.63;;;7.17;;
20437;SDS011;17436;50.338;8.810;2022-10-19T06:51:20;9.47;;;6.50;;
20437;SDS011;17436;50.338;8.810;2022-10-19T06:53:49;11.37;;;7.03;;
20437;SDS011;17436;50.338;8.810;2022-10-19T06:56:16;12.60;;;6.10;;
20437;SDS011;17436;50.338;8.810;2022-10-19T06:58:43;12.67;;;6.43;;
20437;SDS011;17436;50.338;8.810;2022-10-19T07:01:09;8.57;;;5.03;;
20437;SDS011;17436;50.338;8.810;2022-10-19T07:03:38;10.80;;;5.30;;
20437;SDS011;17436;50.338;8.810;2022-10-19T07:06:07;10.13;;;5.50;;
20437;SDS011;17436;50.338;8.810;2022-10-19T07:08:35;10.77;;;5.87;;
20437;SDS011;17436;50.338;8.810;2022-10-19T07:11:03;8.80;;;5.60;;
20437;SDS011;17436;50.338;8.810;2022-10-19T07:13:31;10.47;;;5.50;;
20437;SDS011;17436;50.338;8.810;2022-10-19T07:15:59;9.13;;;5.70;;
20437;SDS011;17436;50.338;8.810;2022-10-19T07:18:29;9.93;;;5.57;;
20437;SDS011;17436;50.338;8.810;2022-10-19T07:20:57;12.30;;;5.73;;
20437;SDS011;17436;50.338;8.810;2022-10-19T07:23:29;10.07;;;5.53;;
20437;SDS011;17436;50.338;8.810;2022-10-19T07:25:57;10.17;;;5.97;;
20437;SDS011;17436;50.338;8.810;2022-10-19T07:28:28;10.90;;;6.03;;
20437;SDS011;17436;50.338;8.810;2022-10-19T07:30:55;11.43;;;5.80;;
20437;SDS011;17436;50.338;8.810;2022-10-19T07:33:22;9.13;;;5.67;;
20437;SDS011;17436;50.338;8.810;2022-10-19T07:35:49;16.37;;;6.03;;
20437;SDS011;17436;50.338;8.810;2022-10-19T07:38:23;9.20;;;5.90;;
20437;SDS011;17436;50.338;8.810;2022-10-19T07:40:51;11.17;;;5.93;;
20437;SDS011;17436;50.338;8.810;2022-10-19T07:43:25;10.43;;;6.27;;
20437;SDS011;17436;50.338;8.810;2022-10-19T07:45:55;10.77;;;6.40;;
20437;SDS011;17436;50.338;8.810;2022-10-19T07:48:23;13.90;;;6.63;;
20437;SDS011;17436;50.338;8.810;2022-10-19T07:50:50;13.37;;;5.97;;
20437;SDS011;17436;50.338;8.810;2022-10-19T07:53:17;14.07;;;5.90;;
20437;SDS011;17436;50.338;8.810;2022-10-19T07:55:44;10.33;;;5.53;;
20437;SDS011;17436;50.338;8.810;2022-10-19T07:58:12;8.93;;;5.60;;
20437;SDS011;17436;50.338;8.810;2022-10-19T08:00:39;11.27;;;6.10;;
20437;SDS011;17436;50.338;8.810;2022-10-19T08:03:05;9.50;;;5.50;;
20437;SDS011;17436;50.338;8.810;2022-10-19T08:05:32;11.80;;;6.20;;
20437;SDS011;17436;50.338;8.810;2022-10-19T08:07:59;10.17;;;5.63;;
20437;SDS011;17436;50.338;8.810;2022-10-19T08:10:26;9.87;;;5.53;;
20437;SDS011;17436;50.338;8.810;2022-10-19T08:12:53;18.37;;;10.77;;
20437;SDS011;17436;50.338;8.810;2022-10-19T08:15:21;13.20;;;7.30;;
20437;SDS011;17436;50.338;8.810;2022-10-19T08:17:50;17.57;;;8.70;;
20437;SDS011;17436;50.338;8.810;2022-10-19T08:20:16;29.57;;;16.03;;
20437;SDS011;17436;50.338;8.810;2022-10-19T08:22:43;13.67;;;7.60;;
20437;SDS011;17436;50.338;8.810;2022-10-19T08:25:10;18.27;;;7.13;;
20437;SDS011;17436;50.338;8.810;2022-10-19T08:27:37;13.77;;;6.10;;
20437;SDS011;17436;50.338;8.810;2022-10-19T08:30:04;12.73;;;5.40;;
20437;SDS011;17436;50.338;8.810;2022-10-19T08:32:33;15.93;;;5.67;;
20437;SDS011;17436;50.338;8.810;2022-10-19T08:35:01;11.97;;;5.80;;
20437;SDS011;17436;50.338;8.810;2022-10-19T08:37:29;11.70;;;5.47;;
20437;SDS011;17436;50.338;8.810;2022-10-19T08:39:56;9.90;;;5.63;;
20437;SDS011;17436;50.338;8.810;2022-10-19T08:42:23;27.03;;;16.80;;
20437;SDS011;17436;50.338;8.810;2022-10-19T08:47:58;11.07;;;5.70;;
20437;SDS011;17436;50.338;8.810;2022-10-19T08:50:35;7.87;;;5.20;;
20437;SDS011;17436;50.338;8.810;2022-10-19T08:53:05;11.97;;;5.53;;
20437;SDS011;17436;50.338;8.810;2022-10-19T08:55:36;8.97;;;5.40;;
20437;SDS011;17436;50.338;8.810;2022-10-19T08:58:24;9.50;;;4.80;;
20437;SDS011;17436;50.338;8.810;2022-10-19T09:01:03;25.93;;;12.80;;
20437;SDS011;17436;50.338;8.810;2022-10-19T09:03:37;21.23;;;11.87;;
20437;SDS011;17436;50.338;8.810;2022-10-19T09:06:15;13.33;;;7.30;;
20437;SDS011;17436;50.338;8.810;2022-10-19T09:08:47;11.27;;;5.07;;
20437;SDS011;17436;50.338;8.810;2022-10-19T09:11:16;13.50;;;5.10;;
20437;SDS011;17436;50.338;8.810;2022-10-19T09:13:46;8.57;;;4.90;;
20437;SDS011;17436;50.338;8.810;2022-10-19T09:16:16;14.50;;;7.13;;
20437;SDS011;17436;50.338;8.810;2022-10-19T09:18:46;18.63;;;8.40;;
20437;SDS011;17436;50.338;8.810;2022-10-19T09:21:13;12.53;;;4.67;;
20437;SDS011;17436;50.338;8.810;2022-10-19T09:23:46;8.43;;;4.40;;
20437;SDS011;17436;50.338;8.810;2022-10-19T09:26:24;11.33;;;5.23;;
20437;SDS011;17436;50.338;8.810;2022-10-19T09:28:56;10.73;;;4.83;;
20437;SDS011;17436;50.338;8.810;2022-10-19T09:31:29;12.37;;;4.80;;
20437;SDS011;17436;50.338;8.810;2022-10-19T09:34:00;9.70;;;4.33;;
20437;SDS011;17436;50.338;8.810;2022-10-19T09:36:34;12.30;;;5.00;;
20437;SDS011;17436;50.338;8.810;2022-10-19T09:39:05;11.10;;;4.80;;
20437;SDS011;17436;50.338;8.810;2022-10-19T09:41:32;12.03;;;5.30;;
20437;SDS011;17436;50.338;8.810;2022-10-19T09:43:59;9.23;;;4.83;;
20437;SDS011;17436;50.338;8.810;2022-10-19T09:46:28;11.37;;;4.60;;
20437;SDS011;17436;50.338;8.810;2022-10-19T09:49:05;8.50;;;4.80;;
20437;SDS011;17436;50.338;8.810;2022-10-19T09:51:39;10.50;;;4.57;;
20437;SDS011;17436;50.338;8.810;2022-10-19T09:54:25;10.00;;;4.73;;
20437;SDS011;17436;50.338;8.810;2022-10-19T09:56:57;10.87;;;4.60;;
20437;SDS011;17436;50.338;8.810;2022-10-19T09:59:24;8.40;;;4.43;;
20437;SDS011;17436;50.338;8.810;2022-10-19T10:02:08;10.90;;;4.93;;
20437;SDS011;17436;50.338;8.810;2022-10-19T10:04:41;11.00;;;4.47;;
20437;SDS011;17436;50.338;8.810;2022-10-19T10:07:13;54.93;;;31.47;;
20437;SDS011;17436;50.338;8.810;2022-10-19T10:09:42;30.03;;;15.03;;
20437;SDS011;17436;50.338;8.810;2022-10-19T10:12:11;10.33;;;4.77;;
20437;SDS011;17436;50.338;8.810;2022-10-19T10:14:40;14.73;;;5.20;;
20437;SDS011;17436;50.338;8.810;2022-10-19T10:17:11;10.07;;;4.57;;
20437;SDS011;17436;50.338;8.810;2022-10-19T10:19:49;9.17;;;4.53;;
20437;SDS011;17436;50.338;8.810;2022-10-19T10:22:27;9.70;;;4.37;;
20437;SDS011;17436;50.338;8.810;2022-10-19T10:24:57;9.50;;;4.67;;
20437;SDS011;17436;50.338;8.810;2022-10-19T10:27:25;10.57;;;4.83;;
20437;SDS011;17436;50.338;8.810;2022-10-19T10:29:56;9.27;;;4.23;;
20437;SDS011;17436;50.338;8.810;2022-10-19T10:32:22;9.90;;;4.20;;
20437;SDS011;17436;50.338;8.810;2022-10-19T10:34:56;11.07;;;4.23;;
20437;SDS011;17436;50.338;8.810;2022-10-19T10:37:27;14.27;;;4.70;;
20437;SDS011;17436;50.338;8.810;2022-10-19T10:39:59;9.07;;;3.90;;
20437;SDS011;17436;50.338;8.810;2022-10-19T10:42:27;9.97;;;4.00;;
20437;SDS011;17436;50.338;8.810;2022-10-19T10:44:58;9.47;;;3.93;;
20437;SDS011;17436;50.338;8.810;2022-10-19T10:47:26;9.50;;;3.60;;
20437;SDS011;17436;50.338;8.810;2022-10-19T10:49:56;9.43;;;3.90;;
20437;SDS011;17436;50.338;8.810;2022-10-19T10:52:26;9.33;;;3.43;;
20437;SDS011;17436;50.338;8.810;2022-10-19T10:54:59;8.63;;;4.07;;
20437;SDS011;17436;50.338;8.810;2022-10-19T10:57:29;11.33;;;3.80;;
20437;SDS011;17436;50.338;8.810;2022-10-19T11:00:01;10.60;;;4.03;;
20437;SDS011;17436;50.338;8.810;2022-10-19T11:02:37;12.63;;;3.80;;
20437;SDS011;17436;50.338;8.810;2022-10-19T11:05:11;12.73;;;4.60;;
20437;SDS011;17436;50.338;8.810;2022-10-19T11:07:43;8.03;;;4.10;;
20437;SDS011;17436;50.338;8.810;2022-10-19T11:10:15;9.47;;;3.60;;
20437;SDS011;17436;50.338;8.810;2022-10-19T11:12:53;13.20;;;4.20;;
20437;SDS011;17436;50.338;8.810;2022-10-19T11:15:27;11.50;;;3.90;;
20437;SDS011;17436;50.338;8.810;2022-10-19T11:18:03;8.43;;;4.17;;
20437;SDS011;17436;50.338;8.810;2022-10-19T11:20:41;10.37;;;4.00;;
20437;SDS011;17436;50.338;8.810;2022-10-19T11:23:25;12.47;;;4.20;;
20437;SDS011;17436;50.338;8.810;2022-10-19T11:26:06;14.00;;;3.93;;
20437;SDS011;17436;50.338;8.810;2022-10-19T11:28:45;8.20;;;3.80;;
20437;SDS011;17436;50.338;8.810;2022-10-19T11:31:19;10.83;;;3.83;;
20437;SDS011;17436;50.338;8.810;2022-10-19T11:33:53;7.00;;;3.60;;
20437;SDS011;17436;50.338;8.810;2022-10-19T11:36:30;10.50;;;4.03;;
20437;SDS011;17436;50.338;8.810;2022-10-19T11:39:11;10.73;;;4.20;;
20437;SDS011;17436;50.338;8.810;2022-10-19T11:41:56;9.20;;;3.73;;
20437;SDS011;17436;50.338;8.810;2022-10-19T11:44:34;9.77;;;3.63;;
20437;SDS011;17436;50.338;8.810;2022-10-19T11:47:15;8.70;;;3.50;;
20437;SDS011;17436;50.338;8.810;2022-10-19T11:49:55;8.30;;;3.40;;
20437;SDS011;17436;50.338;8.810;2022-10-19T11:52:36;9.70;;;3.87;;
20437;SDS011;17436;50.338;8.810;2022-10-19T11:55:13;7.53;;;3.93;;
20437;SDS011;17436;50.338;8.810;2022-10-19T11:57:48;9.40;;;3.77;;
20437;SDS011;17436;50.338;8.810;2022-10-19T12:00:20;9.07;;;3.90;;
20437;SDS011;17436;50.338;8.810;2022-10-19T12:02:57;16.37;;;4.23;;
20437;SDS011;17436;50.338;8.810;2022-10-19T12:05:41;15.83;;;3.83;;
20437;SDS011;17436;50.338;8.810;2022-10-19T12:08:24;10.67;;;3.90;;
20437;SDS011;17436;50.338;8.810;2022-10-19T12:11:01;10.30;;;4.03;;
20437;SDS011;17436;50.338;8.810;2022-10-19T12:13:38;11.20;;;3.87;;
20437;SDS011;17436;50.338;8.810;2022-10-19T12:16:08;7.93;;;3.70;;
20437;SDS011;17436;50.338;8.810;2022-10-19T12:18:37;7.70;;;3.50;;
20437;SDS011;17436;50.338;8.810;2022-10-19T12:21:07;11.83;;;4.13;;
20437;SDS011;17436;50.338;8.810;2022-10-19T12:23:49;9.27;;;3.90;;
20437;SDS011;17436;50.338;8.810;2022-10-19T12:26:19;8.73;;;3.93;;
20437;SDS011;17436;50.338;8.810;2022-10-19T12:28:48;7.27;;;3.60;;
20437;SDS011;17436;50.338;8.810;2022-10-19T12:31:17;11.97;;;4.17;;
20437;SDS011;17436;50.338;8.810;2022-10-19T12:33:45;7.73;;;3.53;;
20437;SDS011;17436;50.338;8.810;2022-10-19T12:36:20;8.10;;;3.67;;
20437;SDS011;17436;50.338;8.810;2022-10-19T12:38:55;12.10;;;3.93;;
20437;SDS011;17436;50.338;8.810;2022-10-19T12:41:28;9.23;;;4.13;;
20437;SDS011;17436;50.338;8.810;2022-10-19T12:44:05;8.93;;;3.77;;
20437;SDS011;17436;50.338;8.810;2022-10-19T12:46:46;8.87;;;3.70;;
20437;SDS011;17436;50.338;8.810;2022-10-19T12:49:33;11.33;;;4.07;;
20437;SDS011;17436;50.338;8.810;2022-10-19T12:52:01;7.80;;;3.90;;
20437;SDS011;17436;50.338;8.810;2022-10-19T12:54:30;9.53;;;3.77;;
20437;SDS011;17436;50.338;8.810;2022-10-19T12:56:59;9.27;;;3.73;;
20437;SDS011;17436;50.338;8.810;2022-10-19T12:59:28;9.20;;;3.80;;
20437;SDS011;17436;50.338;8.810;2022-10-19T13:01:57;8.33;;;3.70;;
20437;SDS011;17436;50.338;8.810;2022-10-19T13:04:25;8.93;;;3.60;;
20437;SDS011;17436;50.338;8.810;2022-10-19T13:06:57;10.03;;;4.30;;
20437;SDS011;17436;50.338;8.810;2022-10-19T13:09:27;12.50;;;3.57;;
20437;SDS011;17436;50.338;8.810;2022-10-19T13:15:47;9.67;;;3.47;;
20437;SDS011;17436;50.338;8.810;2022-10-19T13:21:45;6.57;;;3.43;;
20437;SDS011;17436;50.338;8.810;2022-10-19T13:24:30;8.37;;;3.83;;
20437;SDS011;17436;50.338;8.810;2022-10-19T13:29:53;11.07;;;3.90;;
20437;SDS011;17436;50.338;8.810;2022-10-19T13:32:31;6.93;;;3.27;;
20437;SDS011;17436;50.338;8.810;2022-10-19T13:40:54;8.07;;;3.43;;
20437;SDS011;17436;50.338;8.810;2022-10-19T13:43:28;10.27;;;3.40;;
20437;SDS011;17436;50.338;8.810;2022-10-19T13:45:59;9.50;;;3.40;;
20437;SDS011;17436;50.338;8.810;2022-10-19T13:48:41;6.60;;;3.33;;
20437;SDS011;17436;50.338;8.810;2022-10-19T13:51:23;8.40;;;3.40;;
20437;SDS011;17436;50.338;8.810;2022-10-19T13:54:00;7.87;;;3.87;;
20437;SDS011;17436;50.338;8.810;2022-10-19T13:56:43;7.33;;;3.33;;
20437;SDS011;17436;50.338;8.810;2022-10-19T14:02:34;8.43;;;3.27;;
20437;SDS011;17436;50.338;8.810;2022-10-19T14:05:28;10.00;;;3.73;;
20437;SDS011;17436;50.338;8.810;2022-10-19T14:08:16;9.60;;;3.47;;
20437;SDS011;17436;50.338;8.810;2022-10-19T14:10:59;7.57;;;3.20;;
20437;SDS011;17436;50.338;8.810;2022-10-19T14:13:29;8.87;;;3.23;;
20437;SDS011;17436;50.338;8.810;2022-10-19T14:15:57;11.37;;;3.47;;
20437;SDS011;17436;50.338;8.810;2022-10-19T14:18:27;6.37;;;2.80;;
20437;SDS011;17436;50.338;8.810;2022-10-19T14:20:57;10.53;;;3.50;;
20437;SDS011;17436;50.338;8.810;2022-10-19T14:23:25;7.27;;;3.10;;
20437;SDS011;17436;50.338;8.810;2022-10-19T14:25:54;8.13;;;2.93;;
20437;SDS011;17436;50.338;8.810;2022-10-19T14:28:23;11.03;;;3.60;;
20437;SDS011;17436;50.338;8.810;2022-10-19T14:30:55;7.97;;;3.73;;
20437;SDS011;17436;50.338;8.810;2022-10-19T14:33:23;8.53;;;3.17;;
20437;SDS011;17436;50.338;8.810;2022-10-19T14:35:55;7.77;;;3.10;;
20437;SDS011;17436;50.338;8.810;2022-10-19T14:38:26;7.53;;;2.73;;
20437;SDS011;17436;50.338;8.810;2022-10-19T14:40:59;10.27;;;3.00;;
20437;SDS011;17436;50.338;8.810;2022-10-19T14:43:27;6.83;;;2.97;;
20437;SDS011;17436;50.338;8.810;2022-10-19T14:46:02;8.63;;;2.60;;
20437;SDS011;17436;50.338;8.810;2022-10-19T14:48:37;7.03;;;2.87;;
20437;SDS011;17436;50.338;8.810;2022-10-19T14:51:07;11.47;;;3.13;;
20437;SDS011;17436;50.338;8.810;2022-10-19T14:53:40;8.47;;;3.10;;
20437;SDS011;17436;50.338;8.810;2022-10-19T14:56:12;8.07;;;2.70;;
20437;SDS011;17436;50.338;8.810;2022-10-19T14:58:43;7.30;;;2.60;;
20437;SDS011;17436;50.338;8.810;2022-10-19T15:01:14;8.47;;;3.03;;
20437;SDS011;17436;50.338;8.810;2022-10-19T15:03:42;9.63;;;2.80;;
20437;SDS011;17436;50.338;8.810;2022-10-19T15:06:16;8.37;;;3.20;;
20437;SDS011;17436;50.338;8.810;2022-10-19T15:08:45;5.63;;;2.70;;
20437;SDS011;17436;50.338;8.810;2022-10-19T15:11:21;10.63;;;2.57;;
20437;SDS011;17436;50.338;8.810;2022-10-19T15:13:54;10.70;;;2.50;;
20437;SDS011;17436;50.338;8.810;2022-10-19T15:16:31;9.63;;;2.63;;
20437;SDS011;17436;50.338;8.810;2022-10-19T15:19:09;9.03;;;2.37;;
20437;SDS011;17436;50.338;8.810;2022-10-19T15:21:42;8.30;;;3.20;;